Porbandar, Porbandar Airport (VAPR)

NamePorbandar Airport
CityPorbandar
CountryIndia
ICAOVAPR
IATAPBD
Altitude7 m
CoordinatesGoogle Map
Live Air TrafficLiveATC.net
METARVAPR 180600Z 02008KT 6000 NSC 34/19 Q1013
2019-10-18 06:00:00 Wind: North (20°) 4.12 m/s - Visibility: 6000 m - Temperature: 34 °C - Dew point: 19 °C - Humidity: 41.1% - Pressure: 1013 hPa

Sorry, no flights used the airport in this database.